createdAt,value
2018-12-02T00:00:47.716Z,1.10
2018-12-02T00:03:15.168Z,1.20
2018-12-02T00:05:42.542Z,1.00
2018-12-02T00:08:09.988Z,1.00
2018-12-02T00:10:37.415Z,1.00
2018-12-02T00:13:04.835Z,1.20
2018-12-02T00:15:32.232Z,1.00
2018-12-02T00:17:59.674Z,1.30
2018-12-02T00:20:27.089Z,1.23
2018-12-02T00:22:54.556Z,1.40
2018-12-02T00:25:21.971Z,1.13
2018-12-02T00:27:49.409Z,1.30
2018-12-02T00:30:16.853Z,1.70
2018-12-02T00:32:44.279Z,1.40
2018-12-02T00:35:11.713Z,1.23
2018-12-02T00:37:39.158Z,1.40
2018-12-02T00:40:06.585Z,1.30
2018-12-02T00:42:33.988Z,1.10
2018-12-02T00:45:01.416Z,1.50
2018-12-02T00:47:28.821Z,1.10
2018-12-02T00:49:56.220Z,1.10
2018-12-02T00:52:23.653Z,1.00
2018-12-02T00:54:51.080Z,0.90
2018-12-02T00:57:18.541Z,0.90
2018-12-02T00:59:45.943Z,1.00
2018-12-02T01:02:13.394Z,1.20
2018-12-02T01:04:40.789Z,1.03
2018-12-02T01:07:08.218Z,1.37
2018-12-02T01:09:35.654Z,1.37
2018-12-02T01:12:03.132Z,1.30
2018-12-02T01:14:30.545Z,1.10
2018-12-02T01:16:57.980Z,1.00
2018-12-02T01:19:25.538Z,1.10
2018-12-02T01:21:52.982Z,1.10
2018-12-02T01:24:20.466Z,1.10
2018-12-02T01:26:48.967Z,1.07
2018-12-02T01:29:15.549Z,1.00
2018-12-02T01:31:43.135Z,1.10
2018-12-02T01:34:11.729Z,1.20
2018-12-02T01:36:39.183Z,0.97
2018-12-02T01:39:06.610Z,1.00
2018-12-02T01:41:34.105Z,1.10
2018-12-02T01:44:01.595Z,1.30
2018-12-02T01:46:29.040Z,1.13
2018-12-02T01:48:56.787Z,1.10
2018-12-02T01:51:24.179Z,1.00
2018-12-02T01:53:51.597Z,1.10
2018-12-02T01:56:19.012Z,1.10
2018-12-02T01:58:46.523Z,1.10
2018-12-02T02:01:13.971Z,1.00
2018-12-02T02:03:41.474Z,1.30
2018-12-02T02:06:08.880Z,1.27
2018-12-02T02:08:36.457Z,1.33
2018-12-02T02:11:03.980Z,1.47
2018-12-02T02:13:31.390Z,1.10
2018-12-02T02:15:59.169Z,1.40
2018-12-02T02:18:26.492Z,1.60
2018-12-02T02:20:53.905Z,1.43
2018-12-02T02:23:21.305Z,1.90
2018-12-02T02:25:48.728Z,1.80
2018-12-02T02:28:16.124Z,1.90
2018-12-02T02:30:43.548Z,1.70
2018-12-02T02:33:10.950Z,1.80
2018-12-02T02:35:38.376Z,1.70
2018-12-02T02:38:05.808Z,1.23
2018-12-02T02:40:33.235Z,1.33
2018-12-02T02:43:00.718Z,1.50
2018-12-02T02:45:28.115Z,1.50
2018-12-02T02:47:55.536Z,1.90
2018-12-02T02:50:22.981Z,2.30
2018-12-02T02:52:50.422Z,2.00
2018-12-02T02:55:17.826Z,2.20
2018-12-02T02:57:45.306Z,2.30
2018-12-02T03:00:12.703Z,2.67
2018-12-02T03:02:40.117Z,2.10
2018-12-02T03:05:07.551Z,2.60
2018-12-02T03:07:35.004Z,2.60
2018-12-02T03:10:02.476Z,2.33
2018-12-02T03:12:29.919Z,2.80
2018-12-02T03:14:57.330Z,2.40
2018-12-02T03:17:24.768Z,2.50
2018-12-02T03:19:52.187Z,2.80
2018-12-02T03:22:19.609Z,2.40
2018-12-02T03:24:47.020Z,2.53
2018-12-02T03:27:14.431Z,2.83
2018-12-02T03:29:41.879Z,2.17
2018-12-02T03:32:09.287Z,2.50
2018-12-02T03:34:36.751Z,2.43
2018-12-02T03:37:04.121Z,2.17
2018-12-02T03:39:31.557Z,2.00
2018-12-02T03:41:59.616Z,1.80
2018-12-02T03:44:27.045Z,1.80
2018-12-02T03:46:54.465Z,1.30
2018-12-02T03:49:21.890Z,1.40
2018-12-02T03:51:49.298Z,1.77
2018-12-02T03:54:16.740Z,1.50
2018-12-02T03:56:47.104Z,1.80
2018-12-02T03:59:14.530Z,1.60
2018-12-02T04:01:41.940Z,1.50
2018-12-02T04:04:09.380Z,1.47
2018-12-02T04:06:36.778Z,1.40
2018-12-02T04:09:04.193Z,1.57
2018-12-02T04:11:31.629Z,1.60
2018-12-02T04:13:59.064Z,1.90
2018-12-02T04:16:26.503Z,1.77
2018-12-02T04:18:53.894Z,1.60
2018-12-02T04:21:21.330Z,1.10
2018-12-02T04:23:48.740Z,1.10
2018-12-02T04:26:16.172Z,1.30
2018-12-02T04:28:43.573Z,1.10
2018-12-02T04:31:10.993Z,1.10
2018-12-02T04:33:38.405Z,1.20
2018-12-02T04:36:05.842Z,1.30
2018-12-02T04:38:33.258Z,0.97
2018-12-02T04:41:00.664Z,1.00
2018-12-02T04:43:28.085Z,0.70
2018-12-02T04:45:55.498Z,0.90
2018-12-02T04:48:22.976Z,0.73
2018-12-02T04:50:50.344Z,0.80
2018-12-02T04:53:17.790Z,0.73
2018-12-02T04:55:45.198Z,0.80
2018-12-02T04:58:12.621Z,0.70
2018-12-02T05:00:40.037Z,1.07
2018-12-02T05:03:07.473Z,0.73
2018-12-02T05:05:34.873Z,0.80
2018-12-02T05:08:02.304Z,0.80
2018-12-02T05:10:29.743Z,1.17
2018-12-02T05:12:57.167Z,1.00
2018-12-02T05:15:24.584Z,0.90
2018-12-02T05:17:52.036Z,0.80
2018-12-02T05:20:19.446Z,0.93
2018-12-02T05:22:46.853Z,0.87
2018-12-02T05:25:17.670Z,0.73
2018-12-02T05:27:42.779Z,0.80
2018-12-02T05:30:09.154Z,0.70
2018-12-02T05:32:36.576Z,0.80
2018-12-02T05:35:03.990Z,0.90
2018-12-02T05:37:31.418Z,0.70
2018-12-02T05:39:58.849Z,0.90
2018-12-02T05:42:26.288Z,0.90
2018-12-02T05:44:53.695Z,0.80
2018-12-02T05:47:21.121Z,0.73
2018-12-02T05:49:48.524Z,0.80
2018-12-02T05:52:15.961Z,1.00
2018-12-02T05:54:43.373Z,0.70
2018-12-02T05:57:10.808Z,0.77
2018-12-02T05:59:38.219Z,0.77
2018-12-02T06:02:05.662Z,0.80
2018-12-02T06:04:33.067Z,0.80
2018-12-02T06:07:02.138Z,0.70
2018-12-02T06:09:29.548Z,0.70
2018-12-02T06:11:56.973Z,1.10
2018-12-02T06:14:26.886Z,0.80
2018-12-02T06:16:54.319Z,0.70
2018-12-02T06:19:24.369Z,0.77
2018-12-02T06:21:51.800Z,0.80
2018-12-02T06:24:19.214Z,0.60
2018-12-02T06:26:46.664Z,0.70
2018-12-02T06:29:14.070Z,0.70
2018-12-02T06:31:41.484Z,0.70
2018-12-02T06:34:09.019Z,1.10
2018-12-02T06:36:39.318Z,0.70
2018-12-02T06:39:06.723Z,1.10
2018-12-02T06:41:34.152Z,1.10
2018-12-02T06:44:01.572Z,1.40
2018-12-02T06:46:28.979Z,1.57
2018-12-02T06:48:56.412Z,1.83
2018-12-02T06:51:23.821Z,1.80
2018-12-02T06:53:51.249Z,1.60
2018-12-02T06:56:18.653Z,2.10
2018-12-02T06:58:46.106Z,2.23
2018-12-02T07:01:13.529Z,2.40
2018-12-02T07:03:43.605Z,2.70
2018-12-02T07:06:11.048Z,2.93
2018-12-02T07:08:38.455Z,3.20
2018-12-02T07:11:05.876Z,3.47
2018-12-02T07:13:33.302Z,3.30
2018-12-02T07:16:00.730Z,3.70
2018-12-02T07:18:28.149Z,3.63
2018-12-02T07:20:55.603Z,3.87
2018-12-02T07:23:23.022Z,4.20
2018-12-02T07:25:50.458Z,4.17
2018-12-02T07:28:20.303Z,4.17
2018-12-02T07:30:47.735Z,4.10
2018-12-02T07:33:15.142Z,4.57
2018-12-02T07:35:42.588Z,4.07
2018-12-02T07:38:09.998Z,5.60
2018-12-02T07:40:37.406Z,4.77
2018-12-02T07:43:04.840Z,5.28
2018-12-02T07:45:32.246Z,4.40
2018-12-02T07:47:59.705Z,4.50
2018-12-02T07:50:27.143Z,4.40
2018-12-02T07:52:54.597Z,4.70
2018-12-02T07:55:21.979Z,5.17
2018-12-02T07:57:49.395Z,5.23
2018-12-02T08:00:16.819Z,5.10
2018-12-02T08:02:44.249Z,5.20
2018-12-02T08:05:11.645Z,5.57
2018-12-02T08:07:39.084Z,5.20
2018-12-02T08:10:06.497Z,5.03
2018-12-02T08:12:33.917Z,4.43
2018-12-02T08:15:01.349Z,4.30
2018-12-02T08:17:28.768Z,4.10
2018-12-02T08:19:56.194Z,4.00
2018-12-02T08:22:23.620Z,3.80
2018-12-02T08:24:51.042Z,4.20
2018-12-02T08:27:18.483Z,4.37
2018-12-02T08:29:45.902Z,4.33
2018-12-02T08:32:13.319Z,5.23
2018-12-02T08:34:40.755Z,6.40
2018-12-02T08:37:08.184Z,6.70
2018-12-02T08:39:35.619Z,6.77
2018-12-02T08:42:03.032Z,6.73
2018-12-02T08:44:30.478Z,6.67
2018-12-02T08:46:57.880Z,7.93
2018-12-02T08:49:25.323Z,9.20
2018-12-02T08:51:52.745Z,8.30
2018-12-02T08:54:20.157Z,8.03
2018-12-02T08:56:47.600Z,8.00
2018-12-02T08:59:15.018Z,9.03
2018-12-02T09:01:42.494Z,8.00
2018-12-02T09:04:09.891Z,9.23
2018-12-02T09:06:37.328Z,9.13
2018-12-02T09:09:04.744Z,8.13
2018-12-02T09:11:32.163Z,8.10
2018-12-02T09:13:59.585Z,8.37
2018-12-02T09:16:27.019Z,7.33
2018-12-02T09:18:54.430Z,7.67
2018-12-02T09:21:21.865Z,7.50
2018-12-02T09:23:49.296Z,7.23
2018-12-02T09:26:16.695Z,7.40
2018-12-02T09:28:44.146Z,7.43
2018-12-02T09:31:11.573Z,7.53
2018-12-02T09:33:38.982Z,6.67
2018-12-02T09:36:06.395Z,5.93
2018-12-02T09:38:33.849Z,6.70
2018-12-02T09:41:01.267Z,5.83
2018-12-02T09:43:28.694Z,6.37
2018-12-02T09:45:56.103Z,6.57
2018-12-02T09:48:23.548Z,6.93
2018-12-02T09:50:50.987Z,7.40
2018-12-02T09:53:18.420Z,8.53
2018-12-02T09:55:45.833Z,8.77
2018-12-02T09:58:13.245Z,7.37
2018-12-02T10:00:40.696Z,6.83
2018-12-02T10:03:08.117Z,6.40
2018-12-02T10:05:35.556Z,5.70
2018-12-02T10:08:02.975Z,5.27
2018-12-02T10:10:30.417Z,5.50
2018-12-02T10:12:57.830Z,5.03
2018-12-02T10:15:25.257Z,5.13
2018-12-02T10:17:52.681Z,4.70
2018-12-02T10:20:20.108Z,3.93
2018-12-02T10:22:47.527Z,4.00
2018-12-02T10:25:14.984Z,3.50
2018-12-02T10:27:42.436Z,3.77
2018-12-02T10:30:09.850Z,3.50
2018-12-02T10:32:37.276Z,3.27
2018-12-02T10:35:04.673Z,2.63
2018-12-02T10:37:32.108Z,2.60
2018-12-02T10:39:59.506Z,2.47
2018-12-02T10:42:26.942Z,2.87
2018-12-02T10:44:54.353Z,2.87
2018-12-02T10:47:21.784Z,2.20
2018-12-02T10:49:49.187Z,2.00
2018-12-02T10:52:16.614Z,2.50
2018-12-02T10:54:45.364Z,2.20
2018-12-02T10:57:12.879Z,2.43
2018-12-02T10:59:40.343Z,2.20
2018-12-02T11:02:07.765Z,2.50
2018-12-02T11:04:35.161Z,2.27
2018-12-02T11:07:02.605Z,2.37
2018-12-02T11:09:30.012Z,2.30
2018-12-02T11:11:57.443Z,2.30
2018-12-02T11:14:24.856Z,2.03
2018-12-02T11:16:52.296Z,2.27
2018-12-02T11:19:19.730Z,2.10
2018-12-02T11:21:47.156Z,2.43
2018-12-02T11:24:14.593Z,2.57
2018-12-02T11:26:42.027Z,2.00
2018-12-02T11:29:09.425Z,2.70
2018-12-02T11:31:36.829Z,3.00
2018-12-02T11:34:04.255Z,2.50
2018-12-02T11:36:31.688Z,2.73
2018-12-02T11:38:59.107Z,2.67
2018-12-02T11:41:26.511Z,3.03
2018-12-02T11:43:53.938Z,2.87
2018-12-02T11:46:21.361Z,2.83
2018-12-02T11:48:48.787Z,3.00
2018-12-02T11:51:16.216Z,3.30
2018-12-02T11:53:43.619Z,3.33
2018-12-02T11:56:11.048Z,2.77
2018-12-02T11:58:38.458Z,2.00
2018-12-02T12:01:05.918Z,2.30
2018-12-02T12:03:33.334Z,2.10
2018-12-02T12:06:00.797Z,1.97
2018-12-02T12:08:28.205Z,2.17
2018-12-02T12:10:55.607Z,2.20
2018-12-02T12:13:23.032Z,1.90
2018-12-02T12:15:50.437Z,1.90
2018-12-02T12:18:17.882Z,1.90
2018-12-02T12:20:45.307Z,1.87
2018-12-02T12:23:12.830Z,1.90
2018-12-02T12:25:40.250Z,2.20
2018-12-02T12:28:07.659Z,2.73
2018-12-02T12:30:35.110Z,1.80
2018-12-02T12:33:02.516Z,2.30
2018-12-02T12:35:29.958Z,1.90
2018-12-02T12:37:57.384Z,1.90
2018-12-02T12:40:24.822Z,2.00
2018-12-02T12:42:52.256Z,2.30
2018-12-02T12:45:19.644Z,2.43
2018-12-02T12:47:47.137Z,2.20
2018-12-02T12:50:14.587Z,3.00
2018-12-02T12:52:41.993Z,2.03
2018-12-02T12:55:09.426Z,1.67
2018-12-02T12:57:36.844Z,2.30
2018-12-02T13:00:04.274Z,2.00
2018-12-02T13:02:31.718Z,2.03
2018-12-02T13:04:59.156Z,2.10
2018-12-02T13:07:26.584Z,1.80
2018-12-02T13:09:55.321Z,2.10
2018-12-02T13:12:22.739Z,1.93
2018-12-02T13:14:50.175Z,1.90
2018-12-02T13:17:17.623Z,1.73
2018-12-02T13:19:45.028Z,1.90
2018-12-02T13:22:12.460Z,1.90
2018-12-02T13:24:40.055Z,1.90
2018-12-02T13:27:07.307Z,1.90
2018-12-02T13:29:34.755Z,2.00
2018-12-02T13:32:02.161Z,2.00
2018-12-02T13:34:29.596Z,2.67
2018-12-02T13:36:57.046Z,2.87
2018-12-02T13:39:24.440Z,2.33
2018-12-02T13:41:51.889Z,2.50
2018-12-02T13:44:19.334Z,2.47
2018-12-02T13:46:46.754Z,2.20
2018-12-02T13:49:14.197Z,1.90
2018-12-02T13:51:41.605Z,2.13
2018-12-02T13:54:09.044Z,1.93
2018-12-02T13:56:36.458Z,1.70
2018-12-02T13:59:03.883Z,2.10
2018-12-02T14:01:31.286Z,1.90
2018-12-02T14:03:58.732Z,1.93
2018-12-02T14:06:26.142Z,1.90
2018-12-02T14:08:53.567Z,2.10
2018-12-02T14:11:20.992Z,2.40
2018-12-02T14:13:48.410Z,2.57
2018-12-02T14:16:15.832Z,2.57
2018-12-02T14:18:43.258Z,2.90
2018-12-02T14:21:10.679Z,2.97
2018-12-02T14:23:38.101Z,3.40
2018-12-02T14:26:05.535Z,2.97
2018-12-02T14:28:32.949Z,3.20
2018-12-02T14:31:00.389Z,3.43
2018-12-02T14:33:27.818Z,3.47
2018-12-02T14:35:55.310Z,3.70
2018-12-02T14:38:22.726Z,3.50
2018-12-02T14:40:50.150Z,3.10
2018-12-02T14:43:17.550Z,3.30
2018-12-02T14:45:44.988Z,3.77
2018-12-02T14:48:12.399Z,4.00
2018-12-02T14:50:39.836Z,3.40
2018-12-02T14:53:07.238Z,3.73
2018-12-02T14:55:34.672Z,3.60
2018-12-02T14:58:02.074Z,3.53
2018-12-02T15:00:29.484Z,3.30
2018-12-02T15:02:56.915Z,3.07
2018-12-02T15:05:24.321Z,2.80
2018-12-02T15:07:51.754Z,2.70
2018-12-02T15:10:19.161Z,3.67
2018-12-02T15:12:46.604Z,3.00
2018-12-02T15:15:14.011Z,3.47
2018-12-02T15:17:41.461Z,3.17
2018-12-02T15:20:08.872Z,3.40
2018-12-02T15:22:36.279Z,2.87
2018-12-02T15:25:03.720Z,2.93
2018-12-02T15:27:31.130Z,3.00
2018-12-02T15:29:58.557Z,2.47
2018-12-02T15:32:25.979Z,1.50
2018-12-02T15:34:53.410Z,1.40
2018-12-02T15:37:20.821Z,1.20
2018-12-02T15:39:48.309Z,1.10
2018-12-02T15:42:15.669Z,1.00
2018-12-02T15:44:43.089Z,1.13
2018-12-02T15:47:10.490Z,1.30
2018-12-02T15:49:37.915Z,1.10
2018-12-02T15:52:05.341Z,0.90
2018-12-02T15:54:32.746Z,1.10
2018-12-02T15:57:00.177Z,1.30
2018-12-02T15:59:27.658Z,1.20
2018-12-02T16:01:55.062Z,1.43
2018-12-02T16:04:22.511Z,1.10
2018-12-02T16:06:49.919Z,1.20
2018-12-02T16:09:17.346Z,1.40
2018-12-02T16:11:44.794Z,1.40
2018-12-02T16:14:12.204Z,1.40
2018-12-02T16:16:39.637Z,1.80
2018-12-02T16:19:07.065Z,1.60
2018-12-02T16:21:34.497Z,2.07
2018-12-02T16:24:01.923Z,1.60
2018-12-02T16:26:29.361Z,1.40
2018-12-02T16:28:56.772Z,1.50
2018-12-02T16:31:24.207Z,1.10
2018-12-02T16:33:51.606Z,1.40
2018-12-02T16:36:19.034Z,1.30
2018-12-02T16:38:46.493Z,1.30
2018-12-02T16:41:13.904Z,1.70
2018-12-02T16:43:41.357Z,1.53
2018-12-02T16:46:08.778Z,1.30
2018-12-02T16:48:36.183Z,1.33
2018-12-02T16:51:03.612Z,1.53
2018-12-02T16:53:31.039Z,1.30
2018-12-02T16:55:58.452Z,1.40
2018-12-02T16:58:25.883Z,1.57
2018-12-02T17:00:53.296Z,1.70
2018-12-02T17:03:20.731Z,1.50
2018-12-02T17:05:48.138Z,1.60
2018-12-02T17:08:15.583Z,1.37
2018-12-02T17:10:50.462Z,1.50
2018-12-02T17:13:10.394Z,1.50
2018-12-02T17:15:37.826Z,1.50
2018-12-02T17:18:05.256Z,1.50
2018-12-02T17:20:32.671Z,1.40
2018-12-02T17:23:00.174Z,1.60
2018-12-02T17:25:27.529Z,1.50
2018-12-02T17:27:54.948Z,1.67
2018-12-02T17:30:22.389Z,1.80
2018-12-02T17:32:49.809Z,1.70
2018-12-02T17:35:17.231Z,1.50
2018-12-02T17:37:44.655Z,1.97
2018-12-02T17:40:12.091Z,2.90
2018-12-02T17:42:39.501Z,4.97
2018-12-02T17:45:06.931Z,3.00
2018-12-02T17:47:34.357Z,2.00
2018-12-02T17:50:01.844Z,3.97
2018-12-02T17:52:29.255Z,4.30
2018-12-02T17:54:56.690Z,3.33
2018-12-02T17:57:24.096Z,2.83
2018-12-02T17:59:51.540Z,3.70
2018-12-02T18:02:18.949Z,2.47
2018-12-02T18:04:46.367Z,2.97
2018-12-02T18:07:13.808Z,3.40
2018-12-02T18:09:41.218Z,2.90
2018-12-02T18:12:08.655Z,3.13
2018-12-02T18:14:36.058Z,3.13
2018-12-02T18:17:03.488Z,2.40
2018-12-02T18:19:30.910Z,2.37
2018-12-02T18:21:58.339Z,2.53
2018-12-02T18:24:25.915Z,2.73
2018-12-02T18:26:53.213Z,2.23
2018-12-02T18:29:20.651Z,2.33
2018-12-02T18:31:48.091Z,2.10
2018-12-02T18:34:15.500Z,2.50
2018-12-02T18:36:42.956Z,2.83
2018-12-02T18:39:10.396Z,3.33
2018-12-02T18:41:37.815Z,3.67
2018-12-02T18:44:05.224Z,4.23
2018-12-02T18:46:32.661Z,4.87
2018-12-02T18:49:00.078Z,4.83
2018-12-02T18:51:27.487Z,5.60
2018-12-02T18:53:54.923Z,5.20
2018-12-02T18:56:22.328Z,5.10
2018-12-02T18:58:49.777Z,5.33
2018-12-02T19:01:17.179Z,5.70
2018-12-02T19:03:44.585Z,6.13
2018-12-02T19:06:12.061Z,5.70
2018-12-02T19:08:39.474Z,5.80
2018-12-02T19:11:06.933Z,5.37
2018-12-02T19:13:34.358Z,5.27
2018-12-02T19:16:01.843Z,5.40
2018-12-02T19:18:29.359Z,5.93
2018-12-02T19:20:56.744Z,5.37
2018-12-02T19:23:24.203Z,5.43
2018-12-02T19:25:51.605Z,4.87
2018-12-02T19:28:19.042Z,5.47
2018-12-02T19:30:46.450Z,5.43
2018-12-02T19:33:13.890Z,5.37
2018-12-02T19:35:41.355Z,5.00
2018-12-02T19:38:08.805Z,5.57
2018-12-02T19:40:36.206Z,4.93
2018-12-02T19:43:03.763Z,5.03
2018-12-02T19:45:31.177Z,5.70
2018-12-02T19:47:58.635Z,6.00
2018-12-02T19:50:26.999Z,5.37
2018-12-02T19:52:53.467Z,5.20
2018-12-02T19:55:20.932Z,4.70
2018-12-02T19:57:48.349Z,5.00
2018-12-02T20:00:15.750Z,4.53
2018-12-02T20:02:43.164Z,4.70
2018-12-02T20:05:10.806Z,4.87
2018-12-02T20:07:40.758Z,5.53
2018-12-02T20:10:08.551Z,4.70
2018-12-02T20:12:38.860Z,5.47
2018-12-02T20:15:06.340Z,5.93
2018-12-02T20:17:33.750Z,5.57
2018-12-02T20:20:01.201Z,5.20
2018-12-02T20:22:28.644Z,4.80
2018-12-02T20:24:56.055Z,5.00
2018-12-02T20:27:23.481Z,5.73
2018-12-02T20:29:50.919Z,5.77
2018-12-02T20:32:18.353Z,5.13
2018-12-02T20:34:45.755Z,5.73
2018-12-02T20:37:13.174Z,5.80
2018-12-02T20:39:40.579Z,6.07
2018-12-02T20:42:08.007Z,6.43
2018-12-02T20:44:35.512Z,6.63
2018-12-02T20:47:02.953Z,7.03
2018-12-02T20:49:30.363Z,7.30
2018-12-02T20:51:57.788Z,7.40
2018-12-02T20:54:25.210Z,7.40
2018-12-02T20:56:52.651Z,7.27
2018-12-02T20:59:20.060Z,7.57
2018-12-02T21:01:47.486Z,7.77
2018-12-02T21:04:14.914Z,8.43
2018-12-02T21:06:42.361Z,8.90
2018-12-02T21:09:09.841Z,10.17
2018-12-02T21:11:40.524Z,9.27
2018-12-02T21:14:04.716Z,9.60
2018-12-02T21:16:32.163Z,9.30
2018-12-02T21:18:59.595Z,9.07
2018-12-02T21:21:27.054Z,9.50
2018-12-02T21:23:54.468Z,8.67
2018-12-02T21:26:21.918Z,8.20
2018-12-02T21:28:49.363Z,8.20
2018-12-02T21:31:16.738Z,8.20
2018-12-02T21:33:44.160Z,8.90
2018-12-02T21:36:11.598Z,8.60
2018-12-02T21:38:39.036Z,8.33
2018-12-02T21:41:06.704Z,7.97
2018-12-02T21:43:34.104Z,8.70
2018-12-02T21:46:01.512Z,7.83
2018-12-02T21:48:28.947Z,6.93
2018-12-02T21:50:56.397Z,5.83
2018-12-02T21:53:23.817Z,4.70
2018-12-02T21:55:51.232Z,3.70
2018-12-02T21:58:18.669Z,3.03
2018-12-02T22:00:46.107Z,2.70
2018-12-02T22:03:13.525Z,2.10
2018-12-02T22:05:40.934Z,2.30
2018-12-02T22:08:08.386Z,2.80
2018-12-02T22:10:35.802Z,2.60
2018-12-02T22:13:03.231Z,2.60
2018-12-02T22:15:30.652Z,1.90
2018-12-02T22:17:58.063Z,2.30
2018-12-02T22:20:25.498Z,1.83
2018-12-02T22:22:52.973Z,1.97
2018-12-02T22:25:20.380Z,2.03
2018-12-02T22:27:47.786Z,2.13
2018-12-02T22:30:15.258Z,2.20
2018-12-02T22:32:42.681Z,2.00
2018-12-02T22:35:10.101Z,2.13
2018-12-02T22:37:37.520Z,2.30
2018-12-02T22:40:04.939Z,2.20
2018-12-02T22:42:32.348Z,2.97
2018-12-02T22:44:59.783Z,2.43
2018-12-02T22:47:27.214Z,2.80
2018-12-02T22:49:54.637Z,2.70
2018-12-02T22:52:22.040Z,2.50
2018-12-02T22:54:49.468Z,2.73
2018-12-02T22:57:16.904Z,2.73
2018-12-02T22:59:44.421Z,2.30
2018-12-02T23:02:14.549Z,3.07
2018-12-02T23:04:41.959Z,2.80
2018-12-02T23:07:09.405Z,2.50
2018-12-02T23:09:39.865Z,2.70
2018-12-02T23:12:07.313Z,2.80
2018-12-02T23:14:34.729Z,2.90
2018-12-02T23:17:07.673Z,2.97
2018-12-02T23:19:35.095Z,2.80
2018-12-02T23:22:02.509Z,3.03
2018-12-02T23:24:29.951Z,3.30
2018-12-02T23:26:57.353Z,3.63
2018-12-02T23:29:24.841Z,3.40
2018-12-02T23:31:52.205Z,2.73
2018-12-02T23:34:19.619Z,2.90
2018-12-02T23:36:47.060Z,3.23
2018-12-02T23:39:14.470Z,2.90
2018-12-02T23:41:41.888Z,2.90
2018-12-02T23:44:09.346Z,2.60
2018-12-02T23:46:36.748Z,3.13
2018-12-02T23:49:04.178Z,2.93
2018-12-02T23:51:31.571Z,2.60
2018-12-02T23:53:58.999Z,3.33
2018-12-02T23:56:26.434Z,3.40
2018-12-02T23:58:53.855Z,3.30
